Time;durP1;ratioP1;P1;durP2;ratioP2;P2;SDS_P1;SDS_P2;PMS_P1;PMS_P2;Temp;Humidity;BMP_temperature;BMP_pressure;BME280_temperature;BME280_humidity;BME280_pressure;Samples;Min_cycle;Max_cycle;Signal;HPM_P1;HPM_P2
2022/10/13 00:00:11;;;;;;;6.35;3.67;;;10.40;86.30;;;;;;5045854;28;20182;-72
2022/10/13 00:02:37;;;;;;;4.10;3.55;;;10.40;86.20;;;;;;5048217;28;20271;-72
2022/10/13 00:05:03;;;;;;;5.07;4.20;;;10.40;86.10;;;;;;5045784;28;20652;-72
2022/10/13 00:07:29;;;;;;;5.72;3.55;;;10.40;86.00;;;;;;5048819;28;20188;-72
2022/10/13 00:09:54;;;;;;;5.00;3.90;;;10.30;86.00;;;;;;5051013;28;20269;-71
2022/10/13 00:12:20;;;;;;;4.68;3.45;;;10.30;86.00;;;;;;5053104;28;20205;-72
2022/10/13 00:14:46;;;;;;;3.75;3.47;;;10.30;86.00;;;;;;5046570;28;20190;-71
2022/10/13 00:17:11;;;;;;;4.18;3.17;;;10.30;86.00;;;;;;5048610;28;20211;-71
2022/10/13 00:19:37;;;;;;;4.40;3.78;;;10.30;85.90;;;;;;5050592;28;20679;-72
2022/10/13 00:22:03;;;;;;;5.70;4.13;;;10.30;85.80;;;;;;5051424;28;20649;-71
2022/10/13 00:24:28;;;;;;;6.57;3.83;;;10.30;85.80;;;;;;5050274;28;20223;-71
2022/10/13 00:26:54;;;;;;;4.13;3.73;;;10.30;85.70;;;;;;5050707;28;20210;-71
2022/10/13 00:29:20;;;;;;;4.03;3.72;;;10.30;85.80;;;;;;5048435;28;20187;-72
2022/10/13 00:31:45;;;;;;;3.92;3.22;;;10.30;85.80;;;;;;5049548;28;20183;-71
2022/10/13 00:34:11;;;;;;;4.43;3.90;;;10.30;85.80;;;;;;5048876;28;20184;-71
2022/10/13 00:36:37;;;;;;;3.42;3.20;;;10.30;85.80;;;;;;5044620;28;20241;-72
2022/10/13 00:39:03;;;;;;;8.60;3.80;;;10.30;85.90;;;;;;5048986;28;20190;-72
2022/10/13 00:41:28;;;;;;;4.32;3.53;;;10.30;85.80;;;;;;5048138;28;20191;-71
2022/10/13 00:44:06;;;;;;;5.25;3.83;;;10.30;85.90;;;;;;5047729;28;20207;-71
2022/10/13 00:46:34;;;;;;;4.28;3.45;;;10.30;85.60;;;;;;5050854;28;20767;-71
2022/10/13 00:49:09;;;;;;;4.70;4.10;;;10.20;85.60;;;;;;5046874;28;20187;-72
2022/10/13 00:51:40;;;;;;;4.20;3.85;;;10.20;85.90;;;;;;5046232;28;20217;-71
2022/10/13 00:54:08;;;;;;;5.05;4.60;;;10.20;86.10;;;;;;5049953;28;20179;-72
2022/10/13 00:56:36;;;;;;;4.70;3.75;;;10.20;86.30;;;;;;5046446;28;20867;-72
2022/10/13 00:59:04;;;;;;;3.53;3.33;;;10.20;86.10;;;;;;5054464;28;20245;-74
2022/10/13 01:01:30;;;;;;;7.43;4.28;;;10.20;86.00;;;;;;5050972;28;20198;-71
2022/10/13 01:03:56;;;;;;;4.93;4.22;;;10.20;86.50;;;;;;5049189;28;20636;-73
2022/10/13 01:06:22;;;;;;;4.38;4.00;;;10.20;86.50;;;;;;5049936;28;20186;-71
2022/10/13 01:08:48;;;;;;;4.30;3.90;;;10.20;86.90;;;;;;5051211;28;20668;-72
2022/10/13 01:11:32;;;;;;;3.47;3.25;;;10.20;87.20;;;;;;5051986;28;20171;-71
2022/10/13 01:14:19;;;;;;;4.43;3.63;;;10.20;86.60;;;;;;5043388;28;20180;-71
2022/10/13 01:17:27;;;;;;;4.65;3.95;;;10.20;86.40;;;;;;5050738;28;20638;-71
2022/10/13 01:20:31;;;;;;;7.25;4.10;;;10.20;87.00;;;;;;5045074;28;20247;-71
2022/10/13 01:23:10;;;;;;;7.47;4.32;;;10.20;87.30;;;;;;4998626;28;20197;-71
2022/10/13 01:25:51;;;;;;;5.20;4.23;;;10.10;86.70;;;;;;4999837;28;20212;-72
2022/10/13 01:28:31;;;;;;;4.60;4.30;;;10.10;87.20;;;;;;4998835;28;20796;-72
2022/10/13 01:31:24;;;;;;;5.90;4.10;;;10.10;87.80;;;;;;5000428;28;20220;-72
2022/10/13 01:33:59;;;;;;;4.70;4.15;;;10.10;87.30;;;;;;4998532;28;20193;-71
2022/10/13 01:36:47;;;;;;;4.77;3.90;;;10.10;87.70;;;;;;5002136;28;20649;-72
2022/10/13 01:39:28;;;;;;;4.90;3.67;;;10.10;87.40;;;;;;5000657;28;20188;-72
2022/10/13 01:42:09;;;;;;;5.28;3.58;;;10.10;87.90;;;;;;5002577;28;20185;-71
2022/10/13 01:44:39;;;;;;;5.95;4.10;;;10.00;88.00;;;;;;4992398;28;21190;-71
2022/10/13 01:47:09;;;;;;;5.38;4.13;;;10.00;87.70;;;;;;5000719;28;20343;-72
2022/10/13 01:49:35;;;;;;;7.72;3.80;;;10.00;87.50;;;;;;5001582;28;20662;-71
2022/10/13 01:52:06;;;;;;;5.15;4.22;;;10.00;87.70;;;;;;4998340;28;20200;-71
2022/10/13 01:54:32;;;;;;;4.47;4.10;;;9.90;87.50;;;;;;4998676;28;20208;-73
2022/10/13 01:56:58;;;;;;;6.82;4.60;;;10.00;87.70;;;;;;4999981;28;20188;-73
2022/10/13 01:59:28;;;;;;;5.60;4.32;;;10.00;87.80;;;;;;5015568;28;20192;-73
2022/10/13 02:02:07;;;;;;;5.00;4.53;;;10.00;87.80;;;;;;5050464;28;20175;-72
2022/10/13 02:05:01;;;;;;;6.80;4.40;;;10.00;87.70;;;;;;5047362;28;20250;-72
2022/10/13 02:07:43;;;;;;;4.43;4.03;;;10.00;87.20;;;;;;5048694;28;20198;-72
2022/10/13 02:10:52;;;;;;;5.38;3.97;;;10.00;87.40;;;;;;5045010;28;20202;-71
2022/10/13 02:13:22;;;;;;;6.03;4.47;;;9.90;87.40;;;;;;5040518;28;20202;-72
2022/10/13 02:15:54;;;;;;;6.35;4.70;;;9.90;87.40;;;;;;5038696;28;21082;-71
2022/10/13 02:18:24;;;;;;;4.82;4.05;;;9.90;87.50;;;;;;5036100;28;20196;-72
2022/10/13 02:20:51;;;;;;;4.43;4.03;;;9.90;87.50;;;;;;5040742;28;20910;-73
2022/10/13 02:23:17;;;;;;;9.10;4.30;;;9.90;87.50;;;;;;5038123;28;20206;-73
2022/10/13 02:25:44;;;;;;;6.27;4.00;;;9.80;87.40;;;;;;5038255;28;20215;-72
2022/10/13 02:28:13;;;;;;;4.60;4.17;;;9.80;87.40;;;;;;5036381;28;20211;-73
2022/10/13 02:30:40;;;;;;;5.05;4.63;;;9.80;87.40;;;;;;5039222;28;20223;-72
2022/10/13 02:33:06;;;;;;;7.75;4.50;;;9.90;87.60;;;;;;5024438;28;20193;-73
2022/10/13 02:35:33;;;;;;;5.33;4.57;;;9.90;87.70;;;;;;5041865;28;20286;-72
2022/10/13 02:37:59;;;;;;;6.70;5.03;;;9.90;87.70;;;;;;5039512;28;20218;-74
2022/10/13 02:40:25;;;;;;;5.73;4.47;;;9.90;87.70;;;;;;5039091;28;20187;-70
2022/10/13 02:42:51;;;;;;;6.80;5.28;;;9.90;88.10;;;;;;5039712;28;20649;-72
2022/10/13 02:45:17;;;;;;;4.80;4.43;;;9.90;88.30;;;;;;5040012;28;20211;-70
2022/10/13 02:47:42;;;;;;;7.18;4.80;;;9.90;88.20;;;;;;5038888;28;20226;-72
2022/10/13 02:50:09;;;;;;;7.85;4.82;;;9.90;88.00;;;;;;5053066;28;20274;-72
2022/10/13 02:52:34;;;;;;;5.85;5.22;;;9.90;88.00;;;;;;5050349;28;20182;-71
2022/10/13 02:55:00;;;;;;;8.00;5.20;;;9.90;88.20;;;;;;5048486;28;20225;-72
2022/10/13 02:57:26;;;;;;;6.03;4.63;;;9.80;88.20;;;;;;5046343;28;20748;-72
2022/10/13 02:59:52;;;;;;;6.72;4.10;;;9.80;88.10;;;;;;5050645;28;20302;-72
2022/10/13 03:02:18;;;;;;;8.68;5.10;;;9.80;88.20;;;;;;5052746;28;20225;-70
2022/10/13 03:04:44;;;;;;;7.72;4.80;;;9.80;88.10;;;;;;5049790;28;20211;-71
2022/10/13 03:07:10;;;;;;;6.23;4.60;;;9.80;88.10;;;;;;5046104;28;20666;-70
2022/10/13 03:09:36;;;;;;;6.38;5.00;;;9.80;88.20;;;;;;5047330;28;20179;-73
2022/10/13 03:12:01;;;;;;;5.43;4.80;;;9.80;88.10;;;;;;5048691;28;21005;-72
2022/10/13 03:14:27;;;;;;;6.97;4.82;;;9.80;88.20;;;;;;5043114;28;20586;-72
2022/10/13 03:16:53;;;;;;;7.47;4.28;;;9.80;88.60;;;;;;5046380;28;20186;-72
2022/10/13 03:19:18;;;;;;;5.13;4.70;;;9.80;88.40;;;;;;5043785;28;20180;-72
2022/10/13 03:21:45;;;;;;;5.10;4.60;;;9.80;88.50;;;;;;5044522;28;20664;-72
2022/10/13 03:24:10;;;;;;;4.13;3.63;;;9.80;88.40;;;;;;5047410;28;20207;-72
2022/10/13 03:26:36;;;;;;;5.63;4.37;;;9.80;88.40;;;;;;5049826;28;20179;-72
2022/10/13 03:29:02;;;;;;;4.70;4.30;;;9.70;88.30;;;;;;5048335;28;20222;-72
2022/10/13 03:31:28;;;;;;;4.80;4.25;;;9.70;88.30;;;;;;5042657;28;20238;-72
2022/10/13 03:33:53;;;;;;;7.60;5.33;;;9.70;88.50;;;;;;5050080;28;20182;-72
2022/10/13 03:36:19;;;;;;;5.63;5.00;;;9.70;88.40;;;;;;5046852;28;20668;-72
2022/10/13 03:38:45;;;;;;;5.60;4.60;;;9.70;88.60;;;;;;5042898;28;20846;-72
2022/10/13 03:41:13;;;;;;;5.97;5.40;;;9.70;88.70;;;;;;5040944;28;20313;-72
2022/10/13 03:43:40;;;;;;;8.35;5.30;;;9.70;88.50;;;;;;5049565;28;20570;-72
2022/10/13 03:46:06;;;;;;;5.77;5.20;;;9.70;89.60;;;;;;5050295;28;20214;-72
2022/10/13 03:48:34;;;;;;;10.27;5.30;;;9.70;89.50;;;;;;5052411;28;20221;-71
2022/10/13 03:51:07;;;;;;;10.20;6.13;;;9.70;89.20;;;;;;5040972;28;20590;-71
2022/10/13 03:53:33;;;;;;;5.57;5.07;;;9.70;88.80;;;;;;5047191;28;20183;-72
2022/10/13 03:55:59;;;;;;;10.53;5.60;;;9.70;90.00;;;;;;5051524;28;20183;-72
2022/10/13 03:58:27;;;;;;;6.23;5.60;;;9.70;90.30;;;;;;5048903;28;20716;-71
2022/10/13 04:00:53;;;;;;;8.40;5.70;;;9.70;90.20;;;;;;5049096;28;20179;-72
2022/10/13 04:03:19;;;;;;;7.37;6.00;;;9.70;90.10;;;;;;5045001;28;20183;-75
2022/10/13 04:05:45;;;;;;;8.50;5.83;;;9.70;90.30;;;;;;5052133;28;20352;-75
2022/10/13 04:08:11;;;;;;;6.23;5.07;;;9.70;90.40;;;;;;5049377;28;20669;-71
2022/10/13 04:10:37;;;;;;;6.67;5.70;;;9.70;90.20;;;;;;5047060;28;20188;-72
2022/10/13 04:13:04;;;;;;;12.80;6.13;;;9.70;90.60;;;;;;5046211;28;20261;-73
2022/10/13 04:15:30;;;;;;;9.30;6.27;;;9.70;91.00;;;;;;5047149;28;20237;-74
2022/10/13 04:17:56;;;;;;;7.47;6.00;;;9.60;90.70;;;;;;5054934;28;20191;-75
2022/10/13 04:20:21;;;;;;;8.47;5.83;;;9.70;90.90;;;;;;5053556;28;20191;-76
2022/10/13 04:22:47;;;;;;;7.10;5.90;;;9.60;91.00;;;;;;5052574;28;20232;-79
2022/10/13 04:25:13;;;;;;;9.27;6.30;;;9.60;91.10;;;;;;5051012;28;20215;-75
2022/10/13 04:27:38;;;;;;;8.23;5.87;;;9.60;91.10;;;;;;5058333;28;20692;-76
2022/10/13 04:30:05;;;;;;;8.53;6.20;;;9.60;90.90;;;;;;5053732;28;20203;-75
2022/10/13 04:32:31;;;;;;;7.07;5.80;;;9.60;90.40;;;;;;5061997;28;20187;-76
2022/10/13 04:34:57;;;;;;;7.60;6.07;;;9.50;90.60;;;;;;5059054;28;20965;-75
2022/10/13 04:37:23;;;;;;;8.70;5.70;;;9.50;90.40;;;;;;5045977;28;20264;-74
2022/10/13 04:39:49;;;;;;;7.03;5.37;;;9.50;90.20;;;;;;5052065;28;20251;-78
2022/10/13 04:42:15;;;;;;;10.60;6.38;;;9.50;90.50;;;;;;5046895;28;20195;-75
2022/10/13 04:44:41;;;;;;;12.07;6.93;;;9.50;91.10;;;;;;5049212;28;20219;-75
2022/10/13 04:47:07;;;;;;;7.45;5.65;;;9.60;90.80;;;;;;5050932;28;20988;-75
2022/10/13 04:49:33;;;;;;;8.40;6.63;;;9.50;90.60;;;;;;5052583;28;20554;-76
2022/10/13 04:51:59;;;;;;;7.40;6.00;;;9.60;90.80;;;;;;5051268;28;20290;-75
2022/10/13 04:54:24;;;;;;;12.10;6.77;;;9.60;91.40;;;;;;5048164;28;20286;-77
2022/10/13 04:56:50;;;;;;;11.60;6.80;;;9.60;91.70;;;;;;5054081;28;20266;-75
2022/10/13 04:59:16;;;;;;;9.07;7.20;;;9.70;91.90;;;;;;5049296;28;20207;-78
2022/10/13 05:01:41;;;;;;;10.93;6.73;;;9.70;92.20;;;;;;5056980;28;20468;-77
2022/10/13 05:04:09;;;;;;;10.33;6.23;;;9.70;92.10;;;;;;5053226;28;20179;-77
2022/10/13 05:06:37;;;;;;;12.70;8.03;;;9.70;92.20;;;;;;5047694;28;20187;-77
2022/10/13 05:09:03;;;;;;;12.13;7.30;;;9.70;92.10;;;;;;5051358;28;20187;-77
2022/10/13 05:11:29;;;;;;;12.98;8.88;;;9.70;92.30;;;;;;5055241;28;20269;-76
2022/10/13 05:13:55;;;;;;;11.50;7.20;;;9.80;92.50;;;;;;5047126;28;20190;-75
2022/10/13 05:16:22;;;;;;;13.63;8.47;;;9.80;92.60;;;;;;5047964;28;20188;-76
2022/10/13 05:18:49;;;;;;;14.77;8.03;;;9.80;92.60;;;;;;5052266;28;20222;-77
2022/10/13 05:21:21;;;;;;;10.27;7.93;;;9.80;92.10;;;;;;5050891;28;20270;-78
2022/10/13 05:23:46;;;;;;;10.93;7.50;;;9.80;92.20;;;;;;5052491;28;20186;-77
2022/10/13 05:26:15;;;;;;;9.25;6.55;;;9.80;92.60;;;;;;5052735;28;20645;-76
2022/10/13 05:28:41;;;;;;;12.80;7.63;;;9.80;93.10;;;;;;5052234;28;20619;-76
2022/10/13 05:31:18;;;;;;;11.83;8.47;;;9.90;93.00;;;;;;5050757;28;20203;-76
2022/10/13 05:33:44;;;;;;;12.37;7.97;;;9.90;92.80;;;;;;5055364;28;20265;-76
2022/10/13 05:36:16;;;;;;;14.85;7.85;;;9.90;92.50;;;;;;5044032;28;20635;-77
2022/10/13 05:38:42;;;;;;;9.97;6.30;;;9.90;92.10;;;;;;5052272;28;20678;-77
2022/10/13 05:41:11;;;;;;;9.15;6.90;;;9.90;92.10;;;;;;5048869;28;20187;-77
2022/10/13 05:43:38;;;;;;;9.67;7.17;;;9.90;91.90;;;;;;5054309;28;21016;-77
2022/10/13 05:46:04;;;;;;;8.98;6.55;;;10.00;92.00;;;;;;5053330;28;20225;-77
2022/10/13 05:48:31;;;;;;;13.13;7.07;;;10.00;91.70;;;;;;5045652;28;20250;-77
2022/10/13 05:51:00;;;;;;;11.48;7.78;;;10.10;91.80;;;;;;5042519;28;20184;-76
2022/10/13 05:53:32;;;;;;;11.38;7.53;;;10.10;91.70;;;;;;5047282;28;20179;-76
2022/10/13 05:56:05;;;;;;;15.68;8.43;;;10.20;92.90;;;;;;5046236;28;20738;-75
2022/10/13 05:58:37;;;;;;;8.63;7.30;;;10.30;92.50;;;;;;5045704;28;20187;-77
2022/10/13 06:01:06;;;;;;;12.45;7.93;;;10.40;92.40;;;;;;5048198;28;21049;-77
2022/10/13 06:03:33;;;;;;;10.13;7.45;;;10.40;92.50;;;;;;5047210;28;20684;-78
2022/10/13 06:05:58;;;;;;;17.48;8.43;;;10.50;92.40;;;;;;5045765;28;20222;-76
2022/10/13 06:08:24;;;;;;;11.40;7.63;;;10.50;92.70;;;;;;5045242;28;20176;-76
2022/10/13 06:10:50;;;;;;;13.20;8.27;;;10.50;92.80;;;;;;5053490;28;20662;-76
2022/10/13 06:13:16;;;;;;;10.50;7.30;;;10.60;92.20;;;;;;5040013;28;20184;-76
2022/10/13 06:15:41;;;;;;;13.38;8.35;;;10.60;92.30;;;;;;5045552;28;20175;-77
2022/10/13 06:18:08;;;;;;;16.58;9.40;;;10.70;92.70;;;;;;5047870;28;20557;-76
2022/10/13 06:20:34;;;;;;;10.98;8.10;;;10.60;92.50;;;;;;5038243;28;20187;-77
2022/10/13 06:23:00;;;;;;;12.60;7.43;;;10.70;92.30;;;;;;5037222;28;20199;-77
2022/10/13 06:25:26;;;;;;;13.05;8.13;;;10.80;92.10;;;;;;5047963;28;20202;-77
2022/10/13 06:27:51;;;;;;;12.20;8.00;;;10.90;92.40;;;;;;5047477;28;20187;-76
2022/10/13 06:30:17;;;;;;;15.80;9.70;;;11.00;92.30;;;;;;5041088;28;20837;-76
2022/10/13 06:32:43;;;;;;;9.88;7.35;;;11.10;92.10;;;;;;5046580;28;20179;-77
2022/10/13 06:35:09;;;;;;;14.25;8.02;;;11.20;92.40;;;;;;5042771;28;20915;-76
2022/10/13 06:37:34;;;;;;;11.52;8.13;;;11.30;92.20;;;;;;5041959;28;20206;-76
2022/10/13 06:42:35;;;;;;;12.43;9.27;;;11.60;92.00;;;;;;4676717;22;20330;-76
2022/10/13 06:45:01;;;;;;;19.02;8.15;;;11.80;92.30;;;;;;5011034;28;20288;-78
2022/10/13 06:47:26;;;;;;;13.38;7.55;;;11.90;91.40;;;;;;5037420;28;20204;-79
2022/10/13 06:49:52;;;;;;;14.07;8.00;;;12.00;91.50;;;;;;5040018;28;20269;-77
2022/10/13 06:52:18;;;;;;;12.88;9.10;;;12.10;91.40;;;;;;5039069;28;20246;-77
2022/10/13 06:54:43;;;;;;;20.48;10.05;;;12.20;91.00;;;;;;5043308;28;20242;-77
2022/10/13 06:57:09;;;;;;;15.23;9.18;;;12.30;90.80;;;;;;5039395;28;20718;-76
2022/10/13 06:59:35;;;;;;;12.48;9.18;;;12.40;90.80;;;;;;5037485;28;20180;-77
2022/10/13 07:02:00;;;;;;;14.50;8.82;;;12.50;90.80;;;;;;5040375;28;21020;-77
2022/10/13 07:04:27;;;;;;;10.20;9.00;;;12.60;90.80;;;;;;5026949;28;20204;-77
2022/10/13 07:06:53;;;;;;;13.23;9.43;;;12.70;90.30;;;;;;5042730;28;20190;-76
2022/10/13 07:09:19;;;;;;;14.18;9.32;;;12.90;90.00;;;;;;5041303;28;20928;-77
2022/10/13 07:11:45;;;;;;;16.70;10.10;;;13.00;89.60;;;;;;5024479;28;20186;-77
2022/10/13 07:14:12;;;;;;;18.67;11.50;;;13.10;89.40;;;;;;5027125;28;20191;-76
2022/10/13 07:16:38;;;;;;;19.13;11.50;;;13.20;89.10;;;;;;5044984;28;20273;-78
2022/10/13 07:19:03;;;;;;;19.42;11.23;;;13.40;89.00;;;;;;5046400;28;20267;-78
2022/10/13 07:21:29;;;;;;;21.58;11.52;;;13.50;88.90;;;;;;5045212;28;20886;-77
2022/10/13 07:23:55;;;;;;;17.05;11.10;;;13.80;89.10;;;;;;5045616;28;20188;-77
2022/10/13 07:26:21;;;;;;;18.98;12.15;;;14.10;88.00;;;;;;5042699;28;20957;-75
2022/10/13 07:28:47;;;;;;;21.08;12.60;;;14.50;87.50;;;;;;5027779;28;20187;-77
2022/10/13 07:31:17;;;;;;;22.05;13.15;;;14.90;87.10;;;;;;5046136;28;20186;-77
2022/10/13 07:33:45;;;;;;;21.77;13.48;;;15.50;87.20;;;;;;5041442;28;20191;-78
2022/10/13 07:36:12;;;;;;;20.30;12.52;;;16.00;86.70;;;;;;5044148;28;20183;-76
2022/10/13 07:38:38;;;;;;;24.13;12.90;;;16.70;85.50;;;;;;5042744;28;20183;-77
2022/10/13 07:41:08;;;;;;;23.42;13.63;;;17.30;83.80;;;;;;5049383;28;20216;-76
2022/10/13 07:43:34;;;;;;;22.92;14.27;;;18.00;81.90;;;;;;5045245;28;20188;-76
2022/10/13 07:46:03;;;;;;;21.77;14.23;;;18.60;78.90;;;;;;5042798;28;20200;-76
2022/10/13 07:48:29;;;;;;;20.08;13.10;;;19.00;78.50;;;;;;5023189;28;20197;-75
2022/10/13 07:50:55;;;;;;;24.95;14.52;;;19.50;77.20;;;;;;5044144;28;20262;-76
2022/10/13 07:53:21;;;;;;;22.95;14.60;;;19.90;76.60;;;;;;5044325;28;20746;-76
2022/10/13 07:55:47;;;;;;;23.33;13.77;;;20.30;74.60;;;;;;5041954;28;20184;-77
2022/10/13 07:58:13;;;;;;;22.95;14.23;;;20.70;73.80;;;;;;5041822;28;20187;-76
2022/10/13 08:00:39;;;;;;;22.80;14.15;;;21.10;73.10;;;;;;5048559;28;20179;-78
2022/10/13 08:03:04;;;;;;;23.38;14.70;;;21.40;72.30;;;;;;5046348;28;20283;-77
2022/10/13 08:05:30;;;;;;;21.35;14.88;;;21.70;72.10;;;;;;5043438;28;20200;-77
2022/10/13 08:07:56;;;;;;;18.38;13.02;;;22.00;71.70;;;;;;5049302;28;20715;-77
2022/10/13 08:10:22;;;;;;;21.98;14.57;;;22.30;71.10;;;;;;5045297;28;20214;-77
2022/10/13 08:12:47;;;;;;;22.67;14.32;;;22.70;70.10;;;;;;5047285;28;20179;-76
2022/10/13 08:15:13;;;;;;;23.23;14.35;;;23.00;70.00;;;;;;5046842;28;20671;-77
2022/10/13 08:17:39;;;;;;;21.17;14.23;;;23.30;68.80;;;;;;5045081;28;21267;-77
2022/10/13 08:20:05;;;;;;;24.00;15.35;;;23.60;68.80;;;;;;5046783;28;20190;-76
2022/10/13 08:22:33;;;;;;;25.65;15.18;;;23.90;66.70;;;;;;5045909;28;20185;-77
2022/10/13 08:25:00;;;;;;;21.00;14.30;;;24.20;67.60;;;;;;5045454;28;20215;-77
2022/10/13 08:27:27;;;;;;;21.10;14.40;;;24.50;67.10;;;;;;5029715;28;20194;-76
2022/10/13 08:29:53;;;;;;;23.35;14.82;;;24.90;66.40;;;;;;5050338;28;20289;-76
2022/10/13 08:32:22;;;;;;;21.50;13.50;;;25.20;65.90;;;;;;5051353;28;20183;-77
2022/10/13 08:34:49;;;;;;;21.63;15.52;;;25.50;65.90;;;;;;5043668;28;20773;-76
2022/10/13 08:37:16;;;;;;;20.60;15.55;;;25.80;63.50;;;;;;5050834;28;20192;-76
2022/10/13 08:39:42;;;;;;;21.05;15.23;;;26.10;62.70;;;;;;5044823;28;20183;-77
2022/10/13 08:42:20;;;;;;;18.58;14.02;;;25.90;63.30;;;;;;5048750;28;20644;-76
2022/10/13 08:44:53;;;;;;;19.92;14.75;;;25.70;59.90;;;;;;5034334;28;21132;-76
2022/10/13 08:47:26;;;;;;;21.67;14.70;;;25.60;64.00;;;;;;5049826;28;20856;-77
2022/10/13 08:49:56;;;;;;;22.88;15.02;;;25.50;62.60;;;;;;5052487;28;20223;-76
2022/10/13 08:52:26;;;;;;;22.65;15.52;;;25.30;63.00;;;;;;5050595;28;20241;-76
2022/10/13 08:54:53;;;;;;;18.58;13.68;;;25.20;63.60;;;;;;5033711;28;20183;-76
2022/10/13 08:57:20;;;;;;;22.15;14.07;;;25.20;63.90;;;;;;5051720;28;20176;-76
2022/10/13 08:59:46;;;;;;;18.27;13.57;;;25.40;63.70;;;;;;5050062;28;20800;-76
2022/10/13 09:02:20;;;;;;;22.25;13.77;;;25.60;61.40;;;;;;5051085;28;20183;-77
2022/10/13 09:04:49;;;;;;;20.25;13.80;;;25.70;63.30;;;;;;5050119;28;20235;-76
2022/10/13 09:07:20;;;;;;;17.52;13.52;;;25.90;62.80;;;;;;5050612;28;20190;-76
2022/10/13 09:09:51;;;;;;;23.15;13.48;;;26.10;63.10;;;;;;5050831;28;20195;-76
2022/10/13 09:12:20;;;;;;;16.98;13.25;;;26.50;63.00;;;;;;5051859;28;20797;-76
2022/10/13 09:14:58;;;;;;;22.67;14.23;;;26.80;62.30;;;;;;5050209;28;20190;-76
2022/10/13 09:17:28;;;;;;;21.52;12.50;;;26.90;61.80;;;;;;5050365;28;20190;-75
2022/10/13 09:20:17;;;;;;;17.08;12.52;;;27.10;61.50;;;;;;5051271;28;20211;-75
2022/10/13 09:22:44;;;;;;;19.65;14.57;;;27.30;61.70;;;;;;5028292;28;20270;-75
2022/10/13 09:25:20;;;;;;;18.85;13.38;;;27.60;56.80;;;;;;5052494;28;20594;-77
2022/10/13 09:27:51;;;;;;;19.65;15.07;;;27.60;59.80;;;;;;5053729;28;20186;-75
2022/10/13 09:30:24;;;;;;;16.45;12.90;;;27.60;59.60;;;;;;5046167;28;20762;-77
2022/10/13 09:32:50;;;;;;;18.10;13.68;;;27.80;61.20;;;;;;5043833;28;20183;-77
2022/10/13 09:35:22;;;;;;;20.30;14.13;;;28.20;59.60;;;;;;5048190;28;20715;-76
2022/10/13 09:38:04;;;;;;;17.23;12.65;;;28.60;58.70;;;;;;5049740;28;20236;-78
2022/10/13 09:40:31;;;;;;;19.23;12.80;;;29.00;57.40;;;;;;5045264;28;20183;-76
2022/10/13 09:42:59;;;;;;;20.70;13.43;;;29.30;58.40;;;;;;5048395;28;20207;-76
2022/10/13 09:45:26;;;;;;;16.02;13.50;;;29.80;58.50;;;;;;5046892;28;20742;-76
2022/10/13 09:48:04;;;;;;;20.40;12.93;;;30.20;57.30;;;;;;5050400;28;20578;-76
2022/10/13 09:50:33;;;;;;;16.00;12.95;;;30.60;58.30;;;;;;5029016;28;20667;-77
2022/10/13 09:53:46;;;;;;;19.48;13.10;;;31.00;56.60;;;;;;5048157;28;20191;-77
2022/10/13 09:56:24;;;;;;;19.90;12.90;;;31.50;53.90;;;;;;4969349;28;20617;-76
2022/10/13 09:59:02;;;;;;;14.02;12.27;;;31.90;56.70;;;;;;4985214;28;20253;-76
2022/10/13 10:01:34;;;;;;;19.02;13.80;;;32.20;56.50;;;;;;4983335;28;20239;-76
2022/10/13 10:04:05;;;;;;;17.25;12.43;;;32.60;55.60;;;;;;4986920;28;20197;-77
2022/10/13 10:06:30;;;;;;;19.90;12.73;;;32.80;56.00;;;;;;4979249;28;20207;-77
2022/10/13 10:09:05;;;;;;;16.50;12.13;;;33.10;53.80;;;;;;4982715;28;20192;-76
2022/10/13 10:11:39;;;;;;;14.40;12.93;;;33.40;54.90;;;;;;4983037;28;20274;-77
2022/10/13 10:14:26;;;;;;;14.88;12.10;;;33.60;53.50;;;;;;4981827;28;20189;-76
2022/10/13 10:17:13;;;;;;;12.65;10.75;;;33.40;49.90;;;;;;4979722;28;20188;-76
2022/10/13 10:19:47;;;;;;;12.90;11.60;;;33.20;49.40;;;;;;4983421;28;20192;-76
2022/10/13 10:22:44;;;;;;;15.98;11.48;;;32.80;51.10;;;;;;4984552;28;20754;-78
2022/10/13 10:25:09;;;;;;;13.15;11.20;;;32.10;50.40;;;;;;4989280;28;20221;-76
2022/10/13 10:27:42;;;;;;;13.57;10.55;;;31.80;52.90;;;;;;4989062;28;20209;-76
2022/10/13 10:30:17;;;;;;;13.45;10.88;;;31.40;50.30;;;;;;4987087;28;20186;-76
2022/10/13 10:32:55;;;;;;;15.65;10.63;;;31.20;52.10;;;;;;5022021;28;20813;-76
2022/10/13 10:35:35;;;;;;;13.90;11.75;;;31.20;50.10;;;;;;5049501;28;20182;-76
2022/10/13 10:38:01;;;;;;;14.18;12.05;;;30.70;53.00;;;;;;5049176;28;20267;-76
2022/10/13 10:40:39;;;;;;;16.83;12.50;;;30.50;52.20;;;;;;5047713;28;20290;-75
2022/10/13 10:43:35;;;;;;;14.43;11.23;;;30.20;53.90;;;;;;5048070;28;20188;-75
2022/10/13 10:46:01;;;;;;;19.35;10.63;;;29.70;53.10;;;;;;5028538;28;20210;-75
2022/10/13 10:48:36;;;;;;;14.98;11.75;;;29.40;54.70;;;;;;5045864;28;20237;-75
2022/10/13 10:51:05;;;;;;;12.40;10.68;;;29.20;53.30;;;;;;5046787;28;20174;-75
2022/10/13 10:53:57;;;;;;;11.50;10.00;;;28.80;54.40;;;;;;5052747;28;20270;-75
2022/10/13 10:56:41;;;;;;;16.23;10.88;;;28.70;53.90;;;;;;4941411;28;20369;-76
2022/10/13 10:59:25;;;;;;;13.77;10.50;;;28.60;52.40;;;;;;4954757;28;20190;-75
2022/10/13 11:02:18;;;;;;;12.88;10.10;;;28.70;55.00;;;;;;4957165;28;20197;-76
2022/10/13 11:04:48;;;;;;;13.30;10.57;;;28.80;53.10;;;;;;4937642;28;20211;-76
2022/10/13 11:07:23;;;;;;;13.95;10.57;;;28.70;52.90;;;;;;4959273;28;20230;-76
2022/10/13 11:09:52;;;;;;;12.15;10.20;;;28.70;55.60;;;;;;4957616;28;20877;-75
2022/10/13 11:12:18;;;;;;;12.10;9.00;;;28.60;56.30;;;;;;4955801;28;20193;-75
2022/10/13 11:14:53;;;;;;;10.27;9.25;;;28.50;56.50;;;;;;4957328;28;20201;-75
2022/10/13 11:17:31;;;;;;;10.10;8.80;;;28.50;55.40;;;;;;4957328;28;20208;-75
2022/10/13 11:19:57;;;;;;;11.32;8.75;;;28.50;55.60;;;;;;4955334;28;20237;-75
2022/10/13 11:22:28;;;;;;;9.18;8.32;;;28.50;54.60;;;;;;4940566;28;20934;-74
2022/10/13 11:25:03;;;;;;;10.43;7.07;;;28.50;56.80;;;;;;4958731;28;20222;-76
2022/10/13 11:27:34;;;;;;;9.82;7.88;;;28.60;55.20;;;;;;4955088;28;20210;-75
2022/10/13 11:30:00;;;;;;;12.27;8.63;;;28.50;54.30;;;;;;4956954;28;20214;-75
2022/10/13 11:32:40;;;;;;;11.10;8.38;;;28.50;54.30;;;;;;4964393;28;20224;-75
2022/10/13 11:35:08;;;;;;;13.68;8.88;;;28.50;55.20;;;;;;5027480;28;20186;-77
2022/10/13 11:38:01;;;;;;;10.52;8.18;;;28.60;53.60;;;;;;5049358;28;20214;-77
2022/10/13 11:41:19;;;;;;;9.93;8.40;;;28.80;53.60;;;;;;5027367;28;20905;-76
2022/10/13 11:43:58;;;;;;;7.82;6.97;;;28.60;53.20;;;;;;4985561;28;20205;-75
2022/10/13 11:46:28;;;;;;;9.20;7.90;;;28.60;55.60;;;;;;4989229;28;21096;-76
2022/10/13 11:49:02;;;;;;;7.78;7.10;;;28.70;54.60;;;;;;4983018;28;20201;-77
2022/10/13 11:51:42;;;;;;;8.68;7.88;;;28.60;55.30;;;;;;4988517;28;20679;-75
2022/10/13 11:54:29;;;;;;;6.45;5.93;;;28.40;52.60;;;;;;4988534;28;20271;-77
2022/10/13 11:56:57;;;;;;;8.23;7.47;;;28.20;54.20;;;;;;4984565;28;20201;-76
2022/10/13 11:59:31;;;;;;;9.70;7.97;;;28.00;51.80;;;;;;4984982;28;20200;-77
2022/10/13 12:02:08;;;;;;;12.38;7.88;;;27.70;52.50;;;;;;4980959;28;20204;-76
2022/10/13 12:04:33;;;;;;;8.88;7.97;;;27.50;55.70;;;;;;4988771;28;20229;-75
2022/10/13 12:07:03;;;;;;;12.25;7.53;;;27.50;54.30;;;;;;4986876;28;20204;-76
2022/10/13 12:09:30;;;;;;;8.32;7.50;;;27.10;53.70;;;;;;4988060;28;20663;-76
2022/10/13 12:12:18;;;;;;;8.48;6.72;;;27.00;55.60;;;;;;4985409;28;20217;-75
2022/10/13 12:14:47;;;;;;;8.55;6.80;;;27.10;54.60;;;;;;4989893;28;20596;-75
2022/10/13 12:17:31;;;;;;;9.68;6.85;;;27.20;55.20;;;;;;4987459;28;20194;-75
2022/10/13 12:20:16;;;;;;;7.40;6.68;;;27.30;54.60;;;;;;5016761;28;20191;-75
2022/10/13 12:22:53;;;;;;;9.23;6.35;;;27.20;55.60;;;;;;5049617;28;20179;-74
2022/10/13 12:25:22;;;;;;;7.65;6.95;;;27.40;54.80;;;;;;5053006;28;20214;-74
2022/10/13 12:27:52;;;;;;;7.47;6.80;;;27.60;55.00;;;;;;5047557;28;20183;-74
2022/10/13 12:30:24;;;;;;;10.25;6.30;;;27.70;55.10;;;;;;5034403;28;20188;-75
2022/10/13 12:32:53;;;;;;;6.20;5.70;;;27.70;55.60;;;;;;5042264;28;20191;-75
2022/10/13 12:35:27;;;;;;;7.90;6.10;;;27.70;55.10;;;;;;5051318;28;20280;-76
2022/10/13 12:37:55;;;;;;;6.68;5.93;;;27.80;55.50;;;;;;5051322;28;21330;-75
2022/10/13 12:40:21;;;;;;;8.80;5.68;;;27.90;54.50;;;;;;5042726;28;20176;-75
2022/10/13 12:42:48;;;;;;;5.82;5.32;;;28.00;54.10;;;;;;5031396;28;20954;-77
2022/10/13 12:45:19;;;;;;;8.45;5.35;;;28.40;54.80;;;;;;5044316;28;20266;-77
2022/10/13 12:47:48;;;;;;;5.57;5.10;;;28.70;55.10;;;;;;5048339;28;20195;-76
2022/10/13 12:50:28;;;;;;;6.30;5.22;;;29.10;53.40;;;;;;5049312;28;20730;-76
2022/10/13 12:53:24;;;;;;;5.18;4.68;;;29.60;52.40;;;;;;5051640;28;20175;-76
2022/10/13 12:55:57;;;;;;;4.60;4.20;;;29.60;49.30;;;;;;5049571;28;20187;-76
2022/10/13 12:58:25;;;;;;;6.10;5.65;;;29.60;51.00;;;;;;5049857;28;20172;-76